Hon, Libya
Current Conditions -  °F | °C
As of 7:50 PM on Tuesday 27 Jan 2015 (Local Time) from HLLM Reporting Station
Broken Clouds Broken Clouds  
Wind Chill: 13°   Ceiling: 6000
Heat Index: 13°   Visibility: 4mi
Dew Point:   Wind: 10mph
Humidity: 72%   Direction: 320°NW
Pressure: 30.09"   Gusts: NA
Location:  29.13°N, 15.95°E
Report Text: HLLM 271650Z 32009KT 6000 SCT020 BKN060 13/08 Q1019
Loading
Personal Weather Stations






























Interactive Weather Map New forecast layout! Learn more

10-Day Weather Forecast

Advertisements
Track Severe Weather on mobile